Flight Track Log - Related Links

Times and Time Zones

All times are in EDT time to prevent confusion due to time zone crossing. See the FLG3443 flight status page for this flight to view local times or setup timezone preferences in your user account.

Time Position Orientation Groundspeed Altitude Reporting Facility
EDT Latitude Longitude Course Direction KTS MPH feet Rate Location/Type
Wed 07:08:47 AM 40.8167 -73.8722 350° North 162 186 2,200  Level New York Center
Wed 07:09:41 AM 40.8667 -73.8833 350° North 226 260 4,300 2,667 Climbing New York TRACON
Wed 07:10:35 AM 40.9167 -73.9167 333° Northwest 269 310 7,000 3,158 Climbing New York TRACON
Wed 07:11:35 AM 40.8667 -74.0000 232° Southwest 285 328 10,300 2,500 Climbing New York TRACON
Wed 07:12:35 AM 40.8000 -74.0333 201° Southwest 338 389 12,000 850 Climbing New York TRACON
Wed 07:13:35 AM 40.6833 -74.0667 192° South 383 441 12,000 777 Level New York TRACON
Wed 07:15:48 AM 40.4806 -74.1297 193° South 356 410 14,500 1,786 Climbing New York Center
Wed 07:17:47 AM 40.2719 -74.1967 194° South 370 426 19,500 2,346 Climbing Washington Center
Wed 07:18:47 AM 40.1875 -74.2772 216° Southwest 370 426 21,500 2,132 Climbing Washington Center
Wed 07:19:48 AM 40.1008 -74.3603 216° Southwest 382 440 23,800 1,261 Climbing Washington Center
Wed 07:20:46 AM 40.0100 -74.4458 216° Southwest 397 457 24,000 101 Climbing Washington Center
Wed 07:21:47 AM 39.9150 -74.5392 217° Southwest 417 480 24,000 99 Level Washington Center
Wed 07:22:47 AM 39.8158 -74.6325 216° Southwest 441 507 24,200 595 Climbing Washington Center
Wed 07:23:48 AM 39.7144 -74.7256 215° Southwest 446 513 25,200 908 Climbing Washington Center
Wed 07:24:46 AM 39.6131 -74.8211 216° Southwest 451 519 26,000 403 Climbing Washington Center
Wed 07:25:47 AM 39.5136 -74.9164 216° Southwest 451 519 26,000  Level Washington Center
Wed 07:26:48 AM 39.4244 -74.9978 215° Southwest 445 512 26,000  Level Washington Center
Wed 07:27:49 AM 39.3250 -75.0897 216° Southwest 445 512 26,000  Level Washington Center
Wed 07:28:47 AM 39.2356 -75.1950 222° Southwest 445 512 26,000  Level Washington Center
Wed 07:29:47 AM 39.1483 -75.3081 225° Southwest 445 512 26,000  Level Washington Center
Wed 07:30:48 AM 39.0653 -75.4178 226° Southwest 445 512 26,000  Level Washington Center
Wed 07:31:46 AM 38.9800 -75.5275 225° Southwest 440 506 26,000  Level Washington Center
Wed 07:32:47 AM 38.8986 -75.6369 226° Southwest 428 493 26,000  Level Washington Center
Wed 07:33:48 AM 38.8069 -75.7381 221° Southwest 428 493 26,000  Level Washington Center
Wed 07:34:47 AM 38.7089 -75.8311 217° Southwest 438 504 26,000  Level Washington Center
Wed 07:35:47 AM 38.6086 -75.9211 215° Southwest 444 511 26,000  Level Washington Center
Wed 07:36:47 AM 38.5081 -76.0136 216° Southwest 451 519 26,000  Level Washington Center
Wed 07:37:48 AM 38.4119 -76.1058 217° Southwest 451 519 26,000  Level Washington Center
Wed 07:38:49 AM 38.3217 -76.1950 218° Southwest 458 527 26,000  Level Washington Center
Wed 07:39:46 AM 38.2150 -76.2947 216° Southwest 458 527 26,000  Level Washington Center
Wed 07:40:47 AM 38.1122 -76.3886 216° Southwest 458 527 26,000  Level Washington Center
Wed 07:41:47 AM 38.0008 -76.4956 217° Southwest 458 527 26,000  Level Washington Center
Wed 07:42:48 AM 37.9000 -76.5867 215° Southwest 458 527 26,000 -347 Level Washington Center
Wed 07:43:48 AM 37.8033 -76.6797 217° Southwest 453 521 25,300 -2,000 Descending Washington Center
Wed 07:44:48 AM 37.7003 -76.7728 216° Southwest 453 521 22,000 -1,636 Descending Washington Center
Wed 07:45:49 AM 37.6056 -76.8631 217° Southwest 453 521 22,000  Level Washington Center
Wed 07:46:47 AM 37.5086 -76.9506 216° Southwest 447 514 22,000  Level Washington Center
Wed 07:47:48 AM 37.4200 -77.0328 216° Southwest 442 509 22,000  Level Washington Center
Wed 07:48:49 AM 37.3144 -77.1272 215° Southwest 442 509 22,000  Level Washington Center
Wed 07:49:47 AM 37.2197 -77.1933 209° Southwest 442 509 22,000 -51 Level Washington Center
Wed 07:50:47 AM 37.1167 -77.2642 209° Southwest 431 496 21,900 -843 Descending Washington Center
Wed 07:51:48 AM 37.0111 -77.3425 211° Southwest 431 496 20,300 -942 Descending Washington Center
Wed 07:52:48 AM 36.9119 -77.4156 211° Southwest 431 496 20,000 -151 Descending Washington Center
Wed 07:53:47 AM 36.8086 -77.4908 210° Southwest 431 496 20,000  Level Washington Center
Wed 07:54:47 AM 36.7053 -77.5686 211° Southwest 431 496 20,000  Level Washington Center
Wed 07:55:49 AM 36.6036 -77.6461 211° Southwest 431 496 20,000  Level Washington Center
Wed 07:56:50 AM 36.5042 -77.7264 213° Southwest 431 496 20,000  Level Washington Center
Wed 07:57:47 AM 36.4250 -77.8325 227° Southwest 431 496 20,000 -294 Level Washington Center
Wed 07:58:32 AM 36.3631 -77.9158 227° Southwest 417 480 19,500 -900 Descending Washington Center
Wed 07:58:47 AM 36.3481 -77.9361 227° Southwest 418 481 19,100 -2,200 Descending Washington Center
Wed 07:59:02 AM 36.3181 -77.9714 223° Southwest 412 474 18,400 -2,032 Descending Washington Center
Wed 07:59:49 AM 36.2750 -78.0369 231° Southwest 412 474 17,000 -1,846 Descending Washington Center
Wed 08:00:07 AM 36.2408 -78.0747 222° Southwest 385 443 16,400 -2,069 Descending Washington Center
Wed 08:00:47 AM 36.2003 -78.1275 226° Southwest 398 458 15,000 -2,239 Descending Washington Center
Wed 08:01:14 AM 36.1656 -78.1803 231° Southwest 351 404 13,900 -2,684 Descending Washington Center
Wed 08:02:03 AM 36.1264 -78.2586 238° Southwest 331 381 11,600 -2,463 Descending Washington Center
Wed 08:02:49 AM 36.1000 -78.3169 241° Southwest 329 379 10,000 -1,967 Descending Washington Center
Wed 08:03:04 AM 36.0869 -78.3422 237° Southwest 287 330 9,600 -1,574 Descending Washington Center
Wed 08:03:50 AM 36.0564 -78.4028 238° Southwest 290 334 8,400 -1,475 Descending Washington Center
Wed 08:04:05 AM 36.0433 -78.4281 237° Southwest 260 299 8,100 -421 Descending Washington Center
Wed 08:04:47 AM 36.0256 -78.4736 244° Southwest 279 321 8,000 -100 Descending Washington Center
Wed 08:05:05 AM 36.0081 -78.5039 234° Southwest 259 298 8,000  Level Washington Center
Wed 08:05:47 AM 35.9819 -78.5414 229° Southwest 268 308 8,000  Level Washington Center
Wed 08:06:12 AM 35.9564 -78.5661 218° Southwest 232 267 8,000  Level Washington Center
Wed 08:06:49 AM 35.9347 -78.5961 228° Southwest 250 288 8,000 98 Level Washington Center
Wed 08:07:13 AM 35.9069 -78.6206 215° Southwest 230 265 8,100  Climbing Washington Center
Wed 08:07:47 AM 35.8833 -78.6478 223° Southwest 244 281 8,000 -197 Descending Washington Center
Wed 08:08:14 AM 35.8558 -78.6672 210° Southwest 233 268 7,900 -1,481 Descending Washington Center
Wed 08:09:08 AM 35.8128 -78.7194 225° Southwest 237 273 6,000 -2,071 Descending Washington Center
Wed 08:10:07 AM 35.7633 -78.7739 222° Southwest 236 272 4,000 -1,500 Descending Washington Center
Wed 08:11:08 AM 35.7200 -78.8308 227° Southwest 225 259 3,000 -683 Descending Washington Center
Wed 08:12:10 AM 35.7500 -78.8808 306° West 194 223 2,600 -469 Descending Washington Center
Wed 08:13:16 AM 35.8044 -78.8728 North 167 192 2,000 -632 Descending Washington Center
Wed 08:14:23 AM 35.8406 -78.8436 33° Northeast 134 154 1,200 -656 Descending Washington Center
Wed 08:15:24 AM 35.8686 -78.8114 43° Northeast 138 159 600 -590 Descending Washington Center
Wed 08:17:00 AM 35.8667 -78.7833 45° Northeast  Level FlightAware Approximate
Wed 08:24:00 AM 35.8776 -78.7875 45° Northeast  Level Estimated

Login

Don't have an account? Register now (free) for customized features, flight alerts, and more!